Time;durP1;ratioP1;P1;durP2;ratioP2;P2;SDS_P1;SDS_P2;PMS_P1;PMS_P2;Temp;Humidity;BMP_temperature;BMP_pressure;BME280_temperature;BME280_humidity;BME280_pressure;Samples;Min_cycle;Max_cycle;Signal;HPM_P1;HPM_P2
2021/12/02 00:02:16;;;;;;;8.20;2.70;;;;;;;5.92;83.68;99795.88;4912739;29;20040;-47
2021/12/02 00:04:44;;;;;;;9.57;3.03;;;;;;;5.94;83.99;99791.06;4915645;29;20052;-49
2021/12/02 00:07:12;;;;;;;6.43;2.40;;;;;;;5.94;83.92;99787.50;4916649;29;20132;-50
2021/12/02 00:09:40;;;;;;;8.40;2.58;;;;;;;5.93;84.42;99788.56;4916197;29;20051;-49
2021/12/02 00:12:08;;;;;;;8.85;2.90;;;;;;;5.90;84.61;99786.41;4916684;29;20156;-48
2021/12/02 00:14:45;;;;;;;7.45;2.60;;;;;;;5.88;84.69;99786.66;4916541;29;20506;-50
2021/12/02 00:17:26;;;;;;;9.63;2.83;;;;;;;5.88;85.16;99800.16;4916525;29;20052;-50
2021/12/02 00:23:00;;;;;;;;;;;;;;;5.90;85.64;99794.50;4957264;29;20047;-50
2021/12/02 00:25:28;;;;;;;8.43;2.53;;;;;;;5.92;85.39;99801.28;4935141;29;20384;-48
2021/12/02 00:27:57;;;;;;;8.73;2.22;;;;;;;5.96;85.31;99799.72;4935144;29;20087;-49
2021/12/02 00:30:25;;;;;;;7.00;2.50;;;;;;;5.96;85.03;99797.00;4917887;29;20138;-50
2021/12/02 00:32:55;;;;;;;5.28;2.20;;;;;;;5.98;85.05;99789.44;4933523;29;20043;-50
2021/12/02 00:35:24;;;;;;;5.72;2.10;;;;;;;5.97;84.67;99787.81;4935033;29;20130;-47
2021/12/02 00:37:52;;;;;;;7.30;2.58;;;;;;;5.94;84.89;99791.06;4919132;29;20051;-50
2021/12/02 00:40:20;;;;;;;4.53;2.10;;;;;;;5.94;84.96;99790.22;4917611;29;20487;-48
2021/12/02 00:42:48;;;;;;;6.40;2.17;;;;;;;5.95;85.05;99789.16;4927081;29;20051;-49
2021/12/02 00:45:16;;;;;;;6.93;2.17;;;;;;;5.96;85.11;99786.19;4918919;29;20579;-49
2021/12/02 00:47:44;;;;;;;3.85;1.70;;;;;;;5.95;84.69;99794.56;4934310;29;20048;-50
2021/12/02 00:50:12;;;;;;;5.03;1.95;;;;;;;5.91;84.90;99799.63;4914284;29;20087;-49
2021/12/02 00:52:41;;;;;;;4.43;1.90;;;;;;;5.90;85.36;99795.31;4934856;29;20139;-47
2021/12/02 00:55:09;;;;;;;6.55;1.95;;;;;;;5.89;85.15;99798.28;4934602;28;20047;-49
2021/12/02 00:57:39;;;;;;;5.38;1.85;;;;;;;5.88;85.57;99802.88;4934676;29;20355;-50
2021/12/02 01:00:08;;;;;;;4.32;1.70;;;;;;;5.90;85.58;99814.25;4917557;29;20145;-49
2021/12/02 01:02:37;;;;;;;5.90;2.10;;;;;;;5.89;85.54;99825.31;4944121;29;20070;-48
2021/12/02 01:05:06;;;;;;;3.78;1.50;;;;;;;5.86;85.59;99818.53;4956010;28;20070;-49
2021/12/02 01:07:34;;;;;;;5.82;1.77;;;;;;;5.84;85.79;99831.50;4952927;29;20135;-49
2021/12/02 01:10:02;;;;;;;5.20;1.70;;;;;;;5.80;84.58;99819.59;4954108;29;20077;-48
2021/12/02 01:12:30;;;;;;;4.68;1.45;;;;;;;5.75;86.12;99814.97;4956489;28;20088;-47
2021/12/02 01:14:58;;;;;;;5.97;1.92;;;;;;;5.71;86.63;99821.97;4955141;28;20412;-50
2021/12/02 01:17:26;;;;;;;4.20;1.85;;;;;;;5.70;87.20;99808.69;4955544;28;20048;-47
2021/12/02 01:19:54;;;;;;;7.03;1.98;;;;;;;5.73;87.62;99808.19;4955613;28;20448;-47
2021/12/02 01:22:24;;;;;;;5.28;1.95;;;;;;;5.71;87.38;99815.75;4956765;28;20134;-49
2021/12/02 01:24:53;;;;;;;5.25;2.00;;;;;;;5.70;88.18;99816.81;4955504;28;20052;-51
2021/12/02 01:27:21;;;;;;;8.23;2.22;;;;;;;5.69;88.37;99818.69;4955873;28;20058;-50
2021/12/02 01:29:50;;;;;;;7.47;2.00;;;;;;;5.69;88.78;99815.19;4954549;28;20078;-45
2021/12/02 01:32:18;;;;;;;8.52;2.40;;;;;;;5.71;89.11;99810.34;4956214;28;20055;-50
2021/12/02 01:34:47;;;;;;;4.95;2.00;;;;;;;5.75;89.14;99809.56;4954501;29;20051;-51
2021/12/02 01:37:15;;;;;;;7.18;2.35;;;;;;;5.77;89.41;99809.28;4955825;28;20083;-50
2021/12/02 01:39:43;;;;;;;7.78;2.40;;;;;;;5.78;89.39;99813.63;4955416;28;20111;-52
2021/12/02 01:42:22;;;;;;;6.85;2.08;;;;;;;5.82;89.49;99827.44;4955687;28;20067;-50
2021/12/02 01:44:53;;;;;;;7.32;2.10;;;;;;;5.81;89.52;99815.81;4955342;28;20515;-52
2021/12/02 01:47:27;;;;;;;5.63;2.05;;;;;;;5.85;89.69;99833.13;4955515;28;20498;-50
2021/12/02 01:50:01;;;;;;;5.50;1.92;;;;;;;5.86;89.56;99837.47;4955146;28;20093;-50
2021/12/02 01:52:32;;;;;;;6.75;2.17;;;;;;;5.83;89.51;99835.28;4955475;28;20110;-46
2021/12/02 01:55:18;;;;;;;3.50;1.77;;;;;;;5.74;89.00;99847.66;4956220;28;20426;-47
2021/12/02 01:58:05;;;;;;;6.90;2.20;;;;;;;5.68;88.95;99838.69;4955058;28;20110;-48
2021/12/02 02:00:46;;;;;;;6.88;1.90;;;;;;;5.60;89.10;99831.06;4954693;28;20888;-48
2021/12/02 02:03:15;;;;;;;6.45;2.40;;;;;;;5.57;89.51;99826.19;4953915;29;20044;-49
2021/12/02 02:05:44;;;;;;;3.60;1.75;;;;;;;5.54;89.34;99819.41;4965312;28;20043;-49
2021/12/02 02:08:17;;;;;;;3.90;1.45;;;;;;;5.57;89.58;99817.28;4985427;28;20387;-45
2021/12/02 02:10:45;;;;;;;3.65;1.70;;;;;;;5.60;89.21;99819.44;4955640;28;20130;-49
2021/12/02 02:13:15;;;;;;;5.57;2.10;;;;;;;5.60;89.21;99819.44;4955164;29;20113;-50
2021/12/02 02:15:47;;;;;;;6.40;1.88;;;;;;;5.61;89.40;99827.31;4954186;28;20110;-45
2021/12/02 02:18:20;;;;;;;5.93;2.13;;;;;;;5.62;89.53;99830.81;4954626;28;20078;-50
2021/12/02 02:21:03;;;;;;;6.35;2.20;;;;;;;5.63;89.81;99832.44;4966092;28;20054;-46
2021/12/02 02:23:34;;;;;;;6.72;1.88;;;;;;;5.66;90.21;99823.81;4954939;28;20047;-45
2021/12/02 02:26:02;;;;;;;4.30;1.63;;;;;;;5.67;90.06;99823.53;4953819;28;20134;-49
2021/12/02 02:28:31;;;;;;;7.95;2.42;;;;;;;5.68;90.20;99824.38;4954721;28;20052;-45
2021/12/02 02:30:58;;;;;;;5.78;1.90;;;;;;;5.66;90.07;99830.03;4955428;28;20038;-45
2021/12/02 02:33:34;;;;;;;7.68;1.88;;;;;;;5.67;89.97;99825.44;4954857;28;20514;-45
2021/12/02 02:36:03;;;;;;;5.43;1.73;;;;;;;5.69;90.17;99826.00;4954413;28;20058;-49
2021/12/02 02:38:31;;;;;;;4.38;1.67;;;;;;;5.74;90.35;99824.13;4954087;28;20059;-49
2021/12/02 02:41:01;;;;;;;6.78;2.08;;;;;;;5.77;90.18;99812.00;4955371;28;20057;-49
2021/12/02 02:43:32;;;;;;;5.50;1.65;;;;;;;5.79;89.74;99819.84;4941123;29;20054;-47
2021/12/02 02:46:00;;;;;;;4.18;1.90;;;;;;;5.80;89.47;99821.47;4954506;28;20063;-49
2021/12/02 02:48:32;;;;;;;6.18;1.63;;;;;;;5.79;89.67;99811.75;4954224;28;20051;-51
2021/12/02 02:51:01;;;;;;;5.78;1.88;;;;;;;5.78;89.55;99816.34;4953866;28;20047;-49
2021/12/02 02:53:29;;;;;;;5.15;1.88;;;;;;;5.77;89.35;99809.28;4962909;28;20047;-43
2021/12/02 02:58:48;;;;;;;5.32;1.80;;;;;;;5.68;88.64;99844.09;4953288;28;20054;-48
2021/12/02 03:04:18;;;;;;;5.30;2.08;;;;;;;5.53;90.08;99833.16;4964930;28;20044;-50
2021/12/02 03:09:39;;;;;;;6.47;1.98;;;;;;;5.50;90.59;99842.63;4953606;28;20046;-46
2021/12/02 03:17:14;;;;;;;6.38;2.10;;;;;;;5.47;90.60;99843.13;4953517;28;20437;-46
2021/12/02 03:19:44;;;;;;;5.70;2.10;;;;;;;5.48;90.89;99835.84;4953813;28;20117;-50
2021/12/02 03:22:16;;;;;;;5.35;2.22;;;;;;;5.51;90.71;99838.84;4984857;28;20055;-48
2021/12/02 03:24:44;;;;;;;5.85;2.13;;;;;;;5.54;90.92;99832.91;4954548;28;20047;-50
2021/12/02 03:27:12;;;;;;;6.15;1.90;;;;;;;5.57;90.31;99836.19;4953073;28;20043;-50
2021/12/02 03:29:41;;;;;;;5.40;2.13;;;;;;;5.54;90.21;99835.63;4953378;28;20369;-49
2021/12/02 03:32:09;;;;;;;8.65;2.33;;;;;;;5.54;90.21;99835.63;4953653;29;20054;-47
2021/12/02 03:34:39;;;;;;;7.18;2.30;;;;;;;5.51;89.90;99846.16;4954792;28;20438;-49
2021/12/02 03:37:08;;;;;;;7.82;2.45;;;;;;;5.45;89.49;99839.06;4953639;28;20063;-50
2021/12/02 03:39:36;;;;;;;6.53;2.40;;;;;;;5.41;89.38;99844.19;4952921;28;20058;-49
2021/12/02 03:42:04;;;;;;;6.68;1.95;;;;;;;5.39;89.12;99843.63;4953374;28;20061;-50
2021/12/02 03:44:33;;;;;;;5.13;1.92;;;;;;;5.38;89.28;99844.69;4953518;28;20046;-50
2021/12/02 03:47:01;;;;;;;9.55;2.20;;;;;;;5.38;88.61;99844.69;4953277;29;20365;-49
2021/12/02 03:49:29;;;;;;;9.90;2.17;;;;;;;5.36;88.60;99840.59;4953792;28;20090;-47
2021/12/02 03:51:57;;;;;;;5.78;1.90;;;;;;;5.33;87.89;99839.25;4939972;29;20049;-48
2021/12/02 03:54:25;;;;;;;7.38;2.38;;;;;;;5.29;87.45;99836.25;4953383;29;20050;-49
2021/12/02 03:56:53;;;;;;;4.80;1.58;;;;;;;5.26;87.05;99852.13;4954014;28;20093;-43
2021/12/02 03:59:21;;;;;;;9.75;2.53;;;;;;;5.22;86.91;99842.91;4953526;29;20057;-43
2021/12/02 04:01:49;;;;;;;6.68;2.13;;;;;;;5.21;86.71;99842.09;4953246;29;20043;-44
2021/12/02 04:04:16;;;;;;;6.47;2.15;;;;;;;5.22;86.26;99845.63;4953580;28;20572;-44
2021/12/02 04:06:44;;;;;;;3.53;1.63;;;;;;;5.21;86.14;99849.41;4954061;28;20504;-43
2021/12/02 04:09:21;;;;;;;4.50;1.75;;;;;;;5.20;86.24;99835.09;4953026;28;20051;-43
2021/12/02 04:11:58;;;;;;;;;;;;;;;5.21;86.61;99825.09;4953364;28;20078;-47
2021/12/02 04:17:43;;;;;;;9.88;2.42;;;;;;;5.23;86.12;99828.34;4953716;28;20047;-46
2021/12/02 04:20:31;;;;;;;6.25;2.03;;;;;;;5.21;85.44;99838.59;4952701;28;20059;-43
2021/12/02 04:23:19;;;;;;;6.22;1.98;;;;;;;5.19;85.71;99835.34;4941812;29;20064;-43
2021/12/02 04:26:07;;;;;;;4.45;1.60;;;;;;;5.17;85.53;99843.72;4957246;28;20122;-43
2021/12/02 04:28:55;;;;;;;6.30;2.10;;;;;;;5.17;85.83;99849.13;4952538;29;20465;-47
2021/12/02 04:31:46;;;;;;;5.00;1.80;;;;;;;5.17;85.61;99859.06;4952611;29;20047;-43
2021/12/02 04:34:34;;;;;;;9.30;2.17;;;;;;;5.13;85.99;99859.59;4952859;28;20055;-43
2021/12/02 04:37:21;;;;;;;5.53;2.03;;;;;;;5.15;86.31;99866.63;4953857;28;20430;-44
2021/12/02 04:40:01;;;;;;;4.90;1.77;;;;;;;5.12;86.29;99868.78;4950917;29;20051;-49
2021/12/02 04:42:49;;;;;;;6.65;1.90;;;;;;;5.11;86.63;99872.53;4953033;29;20054;-49
2021/12/02 04:45:36;;;;;;;5.22;1.70;;;;;;;5.10;87.03;99868.22;4952999;29;20047;-44
2021/12/02 04:48:24;;;;;;;7.05;1.77;;;;;;;5.13;86.97;99859.59;4953812;28;20071;-43
2021/12/02 04:51:07;;;;;;;5.35;1.83;;;;;;;5.12;86.72;99868.78;4955111;29;20105;-48
2021/12/02 04:53:54;;;;;;;3.88;1.60;;;;;;;5.10;87.14;99870.91;4956107;29;20082;-43
2021/12/02 04:56:42;;;;;;;7.60;1.98;;;;;;;5.09;87.00;99868.47;4955506;29;20139;-44
2021/12/02 04:59:30;;;;;;;5.75;2.00;;;;;;;5.05;87.48;99868.16;4957062;28;20055;-43
2021/12/02 05:02:17;;;;;;;9.95;1.92;;;;;;;5.04;87.10;99865.72;4956226;28;20058;-45
2021/12/02 05:05:06;;;;;;;4.88;1.77;;;;;;;5.01;87.35;99874.31;4955772;28;20059;-47
2021/12/02 05:07:54;;;;;;;3.20;1.50;;;;;;;4.93;87.87;99886.41;4955562;28;20051;-48
2021/12/02 05:10:41;;;;;;;5.00;1.80;;;;;;;4.89;88.45;99896.06;4955460;28;20043;-49
2021/12/02 05:13:14;;;;;;;4.35;1.88;;;;;;;4.87;88.71;99898.19;4954610;28;20066;-49
2021/12/02 05:16:02;;;;;;;6.82;2.05;;;;;;;4.83;89.45;99894.38;4955364;28;20055;-47
2021/12/02 05:18:50;;;;;;;5.82;1.90;;;;;;;4.78;89.29;99892.41;4956864;28;20078;-44
2021/12/02 05:21:38;;;;;;;5.90;1.70;;;;;;;4.69;89.36;99892.06;4943933;29;20070;-44
2021/12/02 05:24:07;;;;;;;4.07;1.65;;;;;;;4.61;88.87;99895.19;4953775;28;20105;-45
2021/12/02 05:26:49;;;;;;;3.03;1.33;;;;;;;4.59;89.53;99896.50;4955875;28;20054;-50
2021/12/02 05:29:40;;;;;;;4.50;1.90;;;;;;;4.59;90.16;99886.53;4956386;28;20039;-47
2021/12/02 05:32:30;;;;;;;4.60;1.45;;;;;;;4.60;89.79;99901.66;4955131;28;20051;-47
2021/12/02 05:35:18;;;;;;;3.30;1.40;;;;;;;4.55;89.27;99898.91;4949615;28;20062;-50
2021/12/02 05:38:06;;;;;;;3.90;1.40;;;;;;;4.45;89.80;99906.88;4954383;29;20082;-46
2021/12/02 05:40:54;;;;;;;2.88;1.30;;;;;;;4.41;89.67;99892.25;4955701;29;20462;-45
2021/12/02 05:43:42;;;;;;;3.45;1.42;;;;;;;4.42;90.34;99894.69;4951353;29;20067;-45
2021/12/02 05:46:30;;;;;;;2.88;1.40;;;;;;;4.47;90.26;99915.50;4959315;28;20123;-44
2021/12/02 05:49:17;;;;;;;5.68;1.48;;;;;;;4.44;90.04;99916.84;4953779;28;20054;-48
2021/12/02 05:52:05;;;;;;;6.15;1.50;;;;;;;4.43;90.27;99917.09;4942341;29;20149;-48
2021/12/02 05:54:53;;;;;;;3.65;1.58;;;;;;;4.47;90.69;99915.50;4951385;29;20396;-49
2021/12/02 05:57:40;;;;;;;2.45;1.20;;;;;;;4.53;90.70;99906.44;4939918;29;20517;-46
2021/12/02 06:00:27;;;;;;;3.17;1.45;;;;;;;4.55;90.31;99922.38;4954965;28;20066;-49
2021/12/02 06:03:15;;;;;;;5.40;1.90;;;;;;;4.56;90.98;99914.03;4954963;29;20051;-49
2021/12/02 06:06:04;;;;;;;4.93;1.90;;;;;;;4.59;90.46;99920.78;4954901;29;20111;-52
2021/12/02 06:08:52;;;;;;;3.85;1.33;;;;;;;4.60;90.38;99920.56;4956025;28;20520;-50
2021/12/02 06:11:39;;;;;;;5.05;1.80;;;;;;;4.61;90.69;99919.47;4954765;28;20106;-49
2021/12/02 06:14:27;;;;;;;5.35;1.92;;;;;;;4.62;90.59;99918.44;4954276;28;20047;-51
2021/12/02 06:17:15;;;;;;;3.83;1.55;;;;;;;4.63;91.19;99922.75;4958153;28;20121;-49
2021/12/02 06:20:05;;;;;;;4.55;1.77;;;;;;;4.63;90.96;99914.66;4955181;28;20080;-52
2021/12/02 06:22:53;;;;;;;4.35;1.77;;;;;;;4.64;90.70;99910.91;4953528;28;20454;-50
2021/12/02 06:25:47;;;;;;;4.28;1.95;;;;;;;4.62;90.97;99929.22;4954374;29;20047;-48
2021/12/02 06:28:35;;;;;;;4.22;1.70;;;;;;;4.64;90.41;99927.09;4944310;28;20048;-48
2021/12/02 06:31:24;;;;;;;3.25;1.58;;;;;;;4.67;90.48;99928.47;4953682;28;20047;-51
2021/12/02 06:34:11;;;;;;;5.22;1.90;;;;;;;4.64;89.86;99937.03;4954404;28;20070;-48
2021/12/02 06:36:59;;;;;;;3.58;1.42;;;;;;;4.65;90.13;99933.28;4942692;28;20489;-51
2021/12/02 06:39:46;;;;;;;4.07;1.80;;;;;;;4.64;89.98;99942.44;4958314;28;20047;-48
2021/12/02 06:42:34;;;;;;;3.80;1.77;;;;;;;4.66;90.13;99940.31;4961745;28;20051;-47
2021/12/02 06:45:22;;;;;;;3.60;1.60;;;;;;;4.69;90.34;99946.03;4942327;29;20047;-48
2021/12/02 06:48:09;;;;;;;3.55;1.60;;;;;;;4.75;90.26;99946.09;4954403;29;20051;-50
2021/12/02 06:50:57;;;;;;;1.77;1.40;;;;;;;4.78;89.80;99950.97;4953762;28;20051;-48
2021/12/02 06:53:48;;;;;;;5.15;2.28;;;;;;;4.78;89.58;99954.50;4941093;29;20047;-48
2021/12/02 06:56:36;;;;;;;5.25;1.75;;;;;;;4.80;89.60;99955.06;4956280;28;20134;-52
2021/12/02 06:59:23;;;;;;;8.05;2.00;;;;;;;4.79;89.16;99955.31;4954157;29;20102;-53
2021/12/02 07:01:58;;;;;;;5.53;1.88;;;;;;;4.76;89.63;99958.50;4953718;28;20062;-48
2021/12/02 07:04:46;;;;;;;2.67;1.40;;;;;;;4.75;89.56;99959.59;4957264;28;20066;-49
2021/12/02 07:07:37;;;;;;;6.18;1.65;;;;;;;4.73;89.57;99956.31;4953609;29;20054;-49
2021/12/02 07:10:25;;;;;;;4.88;1.77;;;;;;;4.68;89.77;99963.28;4954230;28;20106;-52
2021/12/02 07:13:13;;;;;;;4.82;1.80;;;;;;;4.66;90.13;99968.09;4953432;28;20058;-53
2021/12/02 07:16:01;;;;;;;4.57;1.73;;;;;;;4.62;89.93;99967.00;4259538;29;10001451;-53
2021/12/02 07:18:54;;;;;;;6.53;2.15;;;;;;;4.60;90.22;99969.13;4950299;28;20051;-49
2021/12/02 07:21:42;;;;;;;5.20;1.88;;;;;;;4.63;90.38;99974.00;4953373;28;20051;-52
2021/12/02 07:24:29;;;;;;;4.05;1.52;;;;;;;4.66;89.64;99973.50;4950700;28;20055;-50
2021/12/02 07:27:25;;;;;;;2.97;1.45;;;;;;;4.65;89.97;99973.75;4951057;29;20079;-47
2021/12/02 07:30:13;;;;;;;3.92;1.50;;;;;;;4.64;89.76;99975.66;4952411;28;20074;-45
2021/12/02 07:33:03;;;;;;;7.22;1.85;;;;;;;4.64;89.97;99966.72;4950901;29;20050;-45
2021/12/02 07:35:51;;;;;;;2.83;1.38;;;;;;;4.65;90.04;99974.56;4951307;29;20074;-49
2021/12/02 07:38:39;;;;;;;5.97;1.75;;;;;;;4.61;89.88;99975.31;4950753;29;20066;-48
2021/12/02 07:41:26;;;;;;;4.93;1.58;;;;;;;4.52;89.93;99987.59;4952181;28;20413;-46
2021/12/02 07:44:14;;;;;;;3.97;1.85;;;;;;;4.48;90.34;99995.38;4950924;29;20055;-47
2021/12/02 07:47:03;;;;;;;4.10;1.70;;;;;;;4.44;90.83;99986.97;4938262;29;20055;-49
2021/12/02 07:49:51;;;;;;;6.50;1.88;;;;;;;4.40;90.39;99990.41;4950151;28;20043;-49
2021/12/02 07:52:46;;;;;;;5.25;1.88;;;;;;;4.42;90.93;99988.28;4949700;29;20055;-47
2021/12/02 07:55:37;;;;;;;4.35;2.00;;;;;;;4.44;90.70;99994.25;4938942;29;20048;-49
2021/12/02 07:58:25;;;;;;;3.85;1.70;;;;;;;4.45;89.94;100001.28;4950053;29;20114;-49
2021/12/02 08:01:15;;;;;;;7.95;2.38;;;;;;;4.44;89.95;100008.53;4951751;28;20413;-53
2021/12/02 08:04:03;;;;;;;4.00;2.00;;;;;;;4.43;89.43;100014.19;4942049;28;20062;-50
2021/12/02 08:06:51;;;;;;;7.72;2.47;;;;;;;4.40;89.61;100009.28;4950707;28;20102;-51
2021/12/02 08:09:38;;;;;;;5.03;2.42;;;;;;;4.41;89.32;100013.63;4950748;29;20055;-50
2021/12/02 08:12:26;;;;;;;7.00;2.15;;;;;;;4.37;89.09;100017.88;4951783;28;20055;-53
2021/12/02 08:15:24;;;;;;;5.65;2.15;;;;;;;4.30;88.83;100025.31;4950317;28;20059;-51
2021/12/02 08:18:11;;;;;;;4.90;2.08;;;;;;;4.27;88.47;100035.53;4949521;29;20055;-47
2021/12/02 08:20:59;;;;;;;9.35;2.40;;;;;;;4.23;88.16;100038.94;4952406;28;20494;-43
2021/12/02 08:23:47;;;;;;;5.82;2.47;;;;;;;4.23;88.65;100031.69;4951453;28;20067;-45
2021/12/02 08:26:35;;;;;;;8.73;2.47;;;;;;;4.27;88.14;100046.31;4952216;29;20089;-45
2021/12/02 08:29:23;;;;;;;4.38;1.85;;;;;;;4.28;88.10;100044.41;4954335;28;20134;-44
2021/12/02 08:32:11;;;;;;;7.45;2.45;;;;;;;4.31;88.49;100057.44;4955006;28;20051;-44
2021/12/02 08:35:00;;;;;;;6.40;2.35;;;;;;;4.28;88.45;100060.59;4951086;29;20087;-50
2021/12/02 08:37:50;;;;;;;11.70;2.42;;;;;;;4.26;88.87;100068.94;4952983;28;20063;-44
2021/12/02 08:40:39;;;;;;;7.70;2.55;;;;;;;4.25;88.78;100088.06;4955708;28;20055;-46
2021/12/02 08:43:13;;;;;;;5.68;2.25;;;;;;;4.18;89.02;100101.69;4986884;28;20055;-47
2021/12/02 08:46:00;;;;;;;5.88;2.00;;;;;;;4.19;89.89;100094.44;4955944;29;20047;-48
2021/12/02 08:48:51;;;;;;;5.18;2.15;;;;;;;4.10;89.21;100099.41;4956322;29;20134;-45
2021/12/02 08:51:38;;;;;;;6.30;2.42;;;;;;;3.94;89.40;100092.09;4956523;28;20074;-47
2021/12/02 08:54:26;;;;;;;7.07;2.42;;;;;;;3.93;89.79;100093.19;4956255;29;20059;-46
2021/12/02 08:57:13;;;;;;;6.97;2.50;;;;;;;3.91;89.88;100106.06;4956323;28;20471;-45
2021/12/02 09:00:02;;;;;;;6.32;2.80;;;;;;;3.93;90.08;100102.06;4956722;28;20048;-45
2021/12/02 09:02:44;;;;;;;5.65;3.10;;;;;;;3.95;90.54;100112.63;4972600;28;20560;-53
2021/12/02 09:05:32;;;;;;;8.68;3.30;;;;;;;4.00;90.75;100107.31;4955812;28;20075;-47
2021/12/02 09:08:23;;;;;;;7.18;2.83;;;;;;;4.06;90.92;100114.41;4955208;29;20552;-50
2021/12/02 09:10:57;;;;;;;6.47;2.58;;;;;;;4.10;90.47;100120.97;4987886;28;20051;-51
2021/12/02 09:13:45;;;;;;;7.05;2.25;;;;;;;4.12;90.95;100124.25;4955766;28;20510;-46
2021/12/02 09:16:33;;;;;;;7.55;2.85;;;;;;;4.14;91.24;100132.91;4956025;28;20048;-44
2021/12/02 09:19:21;;;;;;;8.93;2.42;;;;;;;4.18;91.23;100135.94;4957835;28;20106;-45
2021/12/02 09:22:05;;;;;;;7.28;2.65;;;;;;;4.16;91.49;100136.19;4994488;28;20044;-49
2021/12/02 09:24:52;;;;;;;9.95;2.63;;;;;;;4.15;92.15;100150.72;4955725;28;20046;-46
2021/12/02 09:27:40;;;;;;;6.05;2.53;;;;;;;4.18;91.92;100150.22;4955482;29;20047;-46
2021/12/02 09:30:27;;;;;;;7.30;2.83;;;;;;;4.13;91.07;100147.44;4961731;28;20062;-44
2021/12/02 09:33:15;;;;;;;3.72;2.08;;;;;;;4.09;90.36;100145.47;4942170;29;20410;-44
2021/12/02 09:36:03;;;;;;;4.40;1.92;;;;;;;4.04;90.44;100147.03;4955128;28;20051;-48
2021/12/02 09:38:51;;;;;;;4.78;1.90;;;;;;;4.04;90.60;100138.09;4955459;28;20114;-45
2021/12/02 09:41:39;;;;;;;7.05;2.58;;;;;;;4.10;90.79;100141.72;4954371;29;20075;-45
2021/12/02 09:44:26;;;;;;;6.45;2.10;;;;;;;4.14;90.51;100143.69;4954740;29;20105;-45
2021/12/02 09:47:16;;;;;;;6.57;2.13;;;;;;;4.17;90.37;100147.78;4951951;28;20494;-47
2021/12/02 09:50:10;;;;;;;8.98;2.50;;;;;;;4.20;90.55;100156.19;4955902;28;20070;-52
2021/12/02 09:53:06;;;;;;;5.07;2.10;;;;;;;4.21;90.23;100152.47;4952795;28;20055;-44
2021/12/02 09:58:33;;;;;;;5.43;2.50;;;;;;;4.18;90.79;100152.09;4953057;29;20505;-47
2021/12/02 10:01:26;;;;;;;4.53;2.10;;;;;;;4.16;91.05;100149.69;4955485;28;20043;-49
2021/12/02 10:04:16;;;;;;;3.70;1.92;;;;;;;4.14;91.19;100148.28;4956666;28;20375;-47
2021/12/02 10:07:12;;;;;;;7.53;2.15;;;;;;;4.15;91.38;100142.63;4952838;29;20047;-46
2021/12/02 10:13:28;;;;;;;3.97;1.70;;;;;;;4.22;90.63;100151.38;4954104;29;19926;-52
2021/12/02 10:16:26;;;;;;;4.00;1.80;;;;;;;4.23;90.71;100157.59;4932727;29;20063;-48
2021/12/02 10:19:19;;;;;;;6.13;2.35;;;;;;;4.20;90.50;100153.50;4917426;29;20055;-49
2021/12/02 10:22:12;;;;;;;5.35;1.80;;;;;;;4.17;90.14;100159.38;4925554;29;20055;-48
2021/12/02 10:24:59;;;;;;;2.78;1.45;;;;;;;4.09;89.50;100167.88;4925210;29;20130;-51
2021/12/02 10:28:05;;;;;;;5.82;2.00;;;;;;;4.07;90.03;100161.91;4932240;29;20099;-48
2021/12/02 10:30:56;;;;;;;4.20;1.90;;;;;;;4.08;90.36;100154.63;4934651;29;20155;-47
2021/12/02 10:33:47;;;;;;;5.30;1.75;;;;;;;4.11;90.60;100160.34;4932922;29;20451;-48
2021/12/02 10:36:42;;;;;;;5.53;2.20;;;;;;;4.21;90.57;100157.84;4932634;29;20048;-48
2021/12/02 10:39:30;;;;;;;5.63;2.28;;;;;;;4.29;90.52;100162.03;4930495;29;20063;-48
2021/12/02 10:42:21;;;;;;;5.63;2.03;;;;;;;4.33;90.43;100162.34;4932479;29;20534;-49
2021/12/02 10:45:30;;;;;;;5.07;2.00;;;;;;;4.32;89.04;100172.31;4919465;29;20573;-50
2021/12/02 10:48:19;;;;;;;6.53;2.10;;;;;;;4.35;90.11;100181.81;4932165;29;20051;-51
2021/12/02 10:50:57;;;;;;;6.70;2.15;;;;;;;4.38;89.93;100184.84;4951671;28;20059;-51
2021/12/02 10:54:02;;;;;;;3.83;1.60;;;;;;;4.37;89.56;100183.19;4943124;28;20046;-50
2021/12/02 10:57:00;;;;;;;4.03;1.80;;;;;;;4.42;90.16;100179.78;4960128;28;20434;-49
2021/12/02 11:00:03;;;;;;;4.85;1.90;;;;;;;4.45;89.88;100182.81;4959444;28;20057;-46
2021/12/02 11:02:53;;;;;;;4.57;1.70;;;;;;;4.43;89.44;100203.00;4957904;28;20047;-45
2021/12/02 11:05:46;;;;;;;2.28;1.40;;;;;;;4.32;88.92;100193.09;4953020;29;20051;-49
2021/12/02 11:08:34;;;;;;;2.83;1.42;;;;;;;4.29;88.57;100193.56;4960207;28;20051;-50
2021/12/02 11:11:22;;;;;;;2.97;1.33;;;;;;;4.34;89.11;100201.75;4963866;28;20050;-49
2021/12/02 11:14:14;;;;;;;3.10;1.45;;;;;;;4.32;87.94;100201.16;4954291;28;20047;-49
2021/12/02 11:17:13;;;;;;;3.67;1.58;;;;;;;4.31;88.40;100207.63;4953558;28;20118;-48
2021/12/02 11:20:07;;;;;;;4.43;1.90;;;;;;;4.32;88.61;100209.25;4953855;29;20047;-50
2021/12/02 11:23:02;;;;;;;4.47;1.77;;;;;;;4.30;89.48;100217.59;4977194;28;20039;-47
2021/12/02 11:26:06;;;;;;;5.13;1.92;;;;;;;4.33;89.93;100200.94;4952648;28;20184;-50
2021/12/02 11:28:53;;;;;;;3.95;1.90;;;;;;;4.39;89.18;100188.34;4953303;28;20047;-49
2021/12/02 11:31:43;;;;;;;3.53;1.55;;;;;;;4.45;89.17;100190.09;4954662;28;20055;-52
2021/12/02 11:34:39;;;;;;;3.55;1.41;;;;;;;4.49;89.58;100189.34;4559686;28;10000965;-49
2021/12/02 11:37:27;;;;;;;2.13;1.30;;;;;;;4.45;88.94;100190.09;4948068;29;20355;-49
2021/12/02 11:40:25;;;;;;;3.45;1.38;;;;;;;4.38;89.66;100181.34;4950989;28;20044;-51
2021/12/02 11:43:16;;;;;;;5.45;1.55;;;;;;;4.38;90.96;100198.34;4954967;28;20055;-51
2021/12/02 11:46:06;;;;;;;2.33;1.52;;;;;;;4.35;91.43;100208.78;4951025;29;20059;-50
2021/12/02 11:48:54;;;;;;;2.25;1.48;;;;;;;4.35;91.30;100206.06;4953857;28;20049;-50
2021/12/02 11:51:41;;;;;;;2.50;1.63;;;;;;;4.29;90.74;100215.16;4950494;28;20055;-53
2021/12/02 11:54:29;;;;;;;5.07;1.55;;;;;;;4.25;91.38;100212.91;4940295;29;20106;-51
2021/12/02 11:57:18;;;;;;;2.90;1.52;;;;;;;4.25;90.64;100221.00;4931507;29;20051;-51
2021/12/02 12:00:12;;;;;;;3.72;1.77;;;;;;;4.28;91.34;100219.69;4950951;29;20055;-51
2021/12/02 12:03:38;;;;;;;1.95;1.45;;;;;;;4.30;91.38;100228.38;4952606;28;20051;-53
2021/12/02 12:06:32;;;;;;;2.08;1.48;;;;;;;4.34;91.49;100234.94;4948035;29;20086;-52
2021/12/02 12:09:21;;;;;;;2.47;1.48;;;;;;;4.27;90.61;100226.97;4945067;29;20055;-51
2021/12/02 12:12:07;;;;;;;4.47;1.50;;;;;;;4.22;91.13;100237.66;4952600;29;20058;-48
2021/12/02 12:14:55;;;;;;;3.65;1.58;;;;;;;4.20;91.72;100245.19;4955438;28;20463;-49
2021/12/02 12:17:43;;;;;;;1.85;1.52;;;;;;;4.11;92.11;100260.09;4952737;28;20118;-47
2021/12/02 12:21:00;;;;;;;2.28;1.48;;;;;;;4.07;92.31;100266.22;4953839;28;20497;-53
2021/12/02 12:23:59;;;;;;;2.53;1.00;;;;;;;3.96;91.32;100266.00;4947228;28;20449;-53
2021/12/02 12:26:47;;;;;;;1.48;0.95;;;;;;;3.83;91.12;100264.38;4953081;29;20047;-52
2021/12/02 12:29:35;;;;;;;1.42;1.27;;;;;;;3.87;91.43;100258.50;4951194;29;20055;-45
2021/12/02 12:32:32;;;;;;;1.30;1.20;;;;;;;3.87;90.80;100272.00;4953998;29;20571;-50
2021/12/02 12:35:32;;;;;;;1.95;1.13;;;;;;;3.94;90.96;100268.09;4953709;28;20055;-48
2021/12/02 12:38:28;;;;;;;2.33;1.10;;;;;;;3.96;91.46;100267.88;4953233;28;20063;-48
2021/12/02 12:41:18;;;;;;;3.15;1.33;;;;;;;4.02;91.20;100270.44;4951988;28;20063;-49
2021/12/02 12:44:05;;;;;;;3.05;1.45;;;;;;;4.03;91.17;100261.28;4957179;28;20051;-49
2021/12/02 12:46:55;;;;;;;2.10;1.27;;;;;;;4.03;90.96;100271.25;4954379;28;20055;-48
2021/12/02 12:49:42;;;;;;;1.40;1.10;;;;;;;4.06;91.05;100270.78;4951858;28;20497;-50
2021/12/02 12:52:30;;;;;;;2.20;1.50;;;;;;;4.11;91.73;100273.56;4953097;28;20051;-47
2021/12/02 12:55:18;;;;;;;1.67;1.15;;;;;;;4.11;91.09;100284.34;4953841;28;20047;-50
2021/12/02 12:58:17;;;;;;;2.15;1.30;;;;;;;4.12;90.99;100299.50;4952397;29;20406;-51
2021/12/02 13:01:06;;;;;;;2.97;1.50;;;;;;;4.15;91.55;100300.88;4952091;28;20067;-47
2021/12/02 13:04:11;;;;;;;3.83;1.73;;;;;;;4.18;91.57;100312.00;4949937;28;20074;-48
2021/12/02 13:07:05;;;;;;;2.55;1.73;;;;;;;4.21;90.63;100321.47;4956929;28;20174;-51
2021/12/02 13:10:02;;;;;;;2.83;1.50;;;;;;;4.22;90.34;100328.53;4951915;28;20088;-51
2021/12/02 13:12:54;;;;;;;1.85;1.25;;;;;;;4.24;90.04;100332.63;4978482;28;20122;-48
2021/12/02 13:15:42;;;;;;;2.08;1.33;;;;;;;4.18;88.61;100344.34;4957185;28;20055;-49
2021/12/02 13:18:32;;;;;;;1.45;1.10;;;;;;;4.21;89.57;100343.91;4952305;28;20051;-49
2021/12/02 13:21:32;;;;;;;2.83;1.80;;;;;;;4.21;88.95;100343.06;4952769;28;20134;-49